createdAt,value
2022-09-10T00:00:26.643Z,987.93
2022-09-10T00:01:25.748Z,987.91
2022-09-10T00:02:25.694Z,987.90
2022-09-10T00:03:25.668Z,987.95
2022-09-10T00:04:25.666Z,987.92
2022-09-10T00:05:25.675Z,988.00
2022-09-10T00:06:26.181Z,987.96
2022-09-10T00:07:25.614Z,987.95
2022-09-10T00:08:25.614Z,987.96
2022-09-10T00:09:25.594Z,987.97
2022-09-10T00:10:25.624Z,987.94
2022-09-10T00:11:25.576Z,987.90
2022-09-10T00:12:25.607Z,987.93
2022-09-10T00:13:25.556Z,987.88
2022-09-10T00:14:25.584Z,987.93
2022-09-10T00:15:25.537Z,987.90
2022-09-10T00:16:25.623Z,987.94
2022-09-10T00:17:25.516Z,987.94
2022-09-10T00:18:25.515Z,987.89
2022-09-10T00:19:25.495Z,987.92
2022-09-10T00:20:25.479Z,987.92
2022-09-10T00:21:25.488Z,987.92
2022-09-10T00:22:25.466Z,987.87
2022-09-10T00:23:25.465Z,987.90
2022-09-10T00:24:25.459Z,987.87
2022-09-10T00:25:25.425Z,987.89
2022-09-10T00:26:25.694Z,987.86
2022-09-10T00:27:25.419Z,987.83
2022-09-10T00:28:25.418Z,987.82
2022-09-10T00:29:25.416Z,987.86
2022-09-10T00:30:25.388Z,987.84
2022-09-10T00:31:25.458Z,987.84
2022-09-10T00:32:25.377Z,987.82
2022-09-10T00:33:25.400Z,987.82
2022-09-10T00:34:25.338Z,987.82
2022-09-10T00:35:25.336Z,987.84
2022-09-10T00:36:25.325Z,987.79
2022-09-10T00:37:25.618Z,987.81
2022-09-10T00:38:25.317Z,987.81
2022-09-10T00:39:25.286Z,987.86
2022-09-10T00:40:25.280Z,987.82
2022-09-10T00:41:25.286Z,987.82
2022-09-10T00:42:25.262Z,987.84
2022-09-10T00:43:25.247Z,987.82
2022-09-10T00:44:25.259Z,987.78
2022-09-10T00:45:25.268Z,987.79
2022-09-10T00:46:25.241Z,987.75
2022-09-10T00:47:25.220Z,987.77
2022-09-10T00:48:25.199Z,987.77
2022-09-10T00:49:25.189Z,987.79
2022-09-10T00:50:25.179Z,987.78
2022-09-10T00:51:25.159Z,987.80
2022-09-10T00:52:25.267Z,987.80
2022-09-10T00:53:25.157Z,987.79
2022-09-10T00:54:26.128Z,987.81
2022-09-10T00:55:25.120Z,987.81
2022-09-10T00:56:25.247Z,987.81
2022-09-10T00:57:25.118Z,987.82
2022-09-10T00:58:25.099Z,987.86
2022-09-10T00:59:25.089Z,987.82
2022-09-10T01:00:25.080Z,987.86
2022-09-10T01:01:25.060Z,987.85
2022-09-10T01:02:25.620Z,987.86
2022-09-10T01:03:25.808Z,987.85
2022-09-10T01:04:25.994Z,987.87
2022-09-10T01:05:25.028Z,987.84
2022-09-10T01:06:25.011Z,987.86
2022-09-10T01:07:25.009Z,987.83
2022-09-10T01:08:25.100Z,987.86
2022-09-10T01:09:25.011Z,987.82
2022-09-10T01:10:25.034Z,987.78
2022-09-10T01:11:24.991Z,987.78
2022-09-10T01:12:24.951Z,987.78
2022-09-10T01:13:24.962Z,987.79
2022-09-10T01:14:24.931Z,987.77
2022-09-10T01:15:24.909Z,987.78
2022-09-10T01:16:24.953Z,987.79
2022-09-10T01:17:24.912Z,987.78
2022-09-10T01:18:24.890Z,987.78
2022-09-10T01:19:24.930Z,987.74
2022-09-10T01:20:24.878Z,987.74
2022-09-10T01:21:24.850Z,987.74
2022-09-10T01:22:24.850Z,987.75
2022-09-10T01:23:24.842Z,987.71
2022-09-10T01:24:24.852Z,987.70
2022-09-10T01:25:24.944Z,987.72
2022-09-10T01:26:24.902Z,987.70
2022-09-10T01:27:24.792Z,987.71
2022-09-10T01:28:24.803Z,987.76
2022-09-10T01:29:24.792Z,987.75
2022-09-10T01:30:25.444Z,987.70
2022-09-10T01:31:24.835Z,987.73
2022-09-10T01:32:24.762Z,987.66
2022-09-10T01:33:24.731Z,987.66
2022-09-10T01:34:24.721Z,987.63
2022-09-10T01:35:24.713Z,987.62
2022-09-10T01:36:24.701Z,987.69
2022-09-10T01:37:24.699Z,987.66
2022-09-10T01:38:24.701Z,987.68
2022-09-10T01:39:24.703Z,987.69
2022-09-10T01:40:24.694Z,987.71
2022-09-10T01:41:24.663Z,987.67
2022-09-10T01:42:24.723Z,987.70
2022-09-10T01:43:24.634Z,987.64
2022-09-10T01:44:24.653Z,987.63
2022-09-10T01:45:24.644Z,987.69
2022-09-10T01:46:24.604Z,987.69
2022-09-10T01:47:25.355Z,987.73
2022-09-10T01:48:24.592Z,987.69
2022-09-10T01:49:24.562Z,987.71
2022-09-10T01:50:24.582Z,987.72
2022-09-10T01:51:24.572Z,987.71
2022-09-10T01:52:24.532Z,987.74
2022-09-10T01:53:24.543Z,987.75
2022-09-10T01:54:24.583Z,987.72
2022-09-10T01:55:24.534Z,987.73
2022-09-10T01:56:24.554Z,987.75
2022-09-10T01:57:24.498Z,987.75
2022-09-10T01:58:24.493Z,987.70
2022-09-10T01:59:24.475Z,987.74
2022-09-10T02:00:24.475Z,987.72
2022-09-10T02:01:24.514Z,987.68
2022-09-10T02:02:24.476Z,987.68
2022-09-10T02:03:24.433Z,987.72
2022-09-10T02:04:24.436Z,987.69
2022-09-10T02:05:24.393Z,987.71
2022-09-10T02:06:24.444Z,987.74
2022-09-10T02:07:24.458Z,987.74
2022-09-10T02:08:24.425Z,987.72
2022-09-10T02:09:24.386Z,987.72
2022-09-10T02:10:24.683Z,987.72
2022-09-10T02:11:24.346Z,987.72
2022-09-10T02:12:24.337Z,987.72
2022-09-10T02:13:24.326Z,987.70
2022-09-10T02:14:24.315Z,987.70
2022-09-10T02:15:24.317Z,987.71
2022-09-10T02:16:24.350Z,987.75
2022-09-10T02:17:24.288Z,987.72
2022-09-10T02:18:24.277Z,987.71
2022-09-10T02:19:24.654Z,987.75
2022-09-10T02:20:24.255Z,987.74
2022-09-10T02:21:24.273Z,987.76
2022-09-10T02:22:24.223Z,987.78
2022-09-10T02:23:24.256Z,987.77
2022-09-10T02:24:24.244Z,987.71
2022-09-10T02:25:24.245Z,987.77
2022-09-10T02:26:24.235Z,987.74
2022-09-10T02:27:24.187Z,987.74
2022-09-10T02:28:24.186Z,987.76
2022-09-10T02:29:24.157Z,987.74
2022-09-10T02:30:24.158Z,987.75
2022-09-10T02:31:24.181Z,987.77
2022-09-10T02:32:24.157Z,987.77
2022-09-10T02:33:24.157Z,987.76
2022-09-10T02:34:25.065Z,987.72
2022-09-10T02:35:24.103Z,987.74
2022-09-10T02:36:24.106Z,987.77
2022-09-10T02:37:24.096Z,987.70
2022-09-10T02:38:24.066Z,987.74
2022-09-10T02:39:24.097Z,987.78
2022-09-10T02:40:24.046Z,987.70
2022-09-10T02:41:24.038Z,987.72
2022-09-10T02:42:24.026Z,987.67
2022-09-10T02:43:24.058Z,987.69
2022-09-10T02:44:24.008Z,987.68
2022-09-10T02:45:24.040Z,987.66
2022-09-10T02:46:23.980Z,987.65
2022-09-10T02:47:23.978Z,987.68
2022-09-10T02:48:23.969Z,987.63
2022-09-10T02:49:24.000Z,987.64
2022-09-10T02:50:23.948Z,987.63
2022-09-10T02:51:23.927Z,987.61
2022-09-10T02:52:23.952Z,987.62
2022-09-10T02:53:23.908Z,987.61
2022-09-10T02:54:23.918Z,987.59
2022-09-10T02:55:23.919Z,987.58
2022-09-10T02:56:28.688Z,987.61
2022-09-10T02:57:23.859Z,987.63
2022-09-10T02:58:23.847Z,987.60
2022-09-10T02:59:23.865Z,987.64
2022-09-10T03:00:23.859Z,987.67
2022-09-10T03:01:23.877Z,987.64
2022-09-10T03:02:23.829Z,987.65
2022-09-10T03:03:23.828Z,987.64
2022-09-10T03:04:23.800Z,987.66
2022-09-10T03:05:24.251Z,987.67
2022-09-10T03:07:19.801Z,987.62
2022-09-10T03:08:19.832Z,987.69
2022-09-10T03:09:19.782Z,987.67
2022-09-10T03:10:19.783Z,987.62
2022-09-10T03:11:19.782Z,987.67
2022-09-10T03:12:19.758Z,987.67
2022-09-10T03:13:20.199Z,987.63
2022-09-10T03:14:19.740Z,987.63
2022-09-10T03:15:19.730Z,987.60
2022-09-10T03:16:19.735Z,987.58
2022-09-10T03:17:19.720Z,987.58
2022-09-10T03:18:19.718Z,987.62
2022-09-10T03:19:19.701Z,987.59
2022-09-10T03:20:20.683Z,987.58
2022-09-10T03:21:19.682Z,987.58
2022-09-10T03:22:19.653Z,987.57
2022-09-10T03:23:19.653Z,987.54
2022-09-10T03:24:19.633Z,987.58
2022-09-10T03:25:19.625Z,987.57
2022-09-10T03:26:19.652Z,987.62
2022-09-10T03:27:19.643Z,987.59
2022-09-10T03:28:19.581Z,987.60
2022-09-10T03:29:19.571Z,987.62
2022-09-10T03:30:19.561Z,987.60
2022-09-10T03:31:19.609Z,987.57
2022-09-10T03:32:19.559Z,987.59
2022-09-10T03:33:19.571Z,987.58
2022-09-10T03:34:19.551Z,987.55
2022-09-10T03:35:19.521Z,987.60
2022-09-10T03:36:19.514Z,987.58
2022-09-10T03:37:19.503Z,987.56
2022-09-10T03:38:19.504Z,987.56
2022-09-10T03:39:19.484Z,987.56
2022-09-10T03:40:19.464Z,987.64
2022-09-10T03:41:19.463Z,987.58
2022-09-10T03:42:19.455Z,987.59
2022-09-10T03:43:19.496Z,987.56
2022-09-10T03:44:19.452Z,987.59
2022-09-10T03:45:19.413Z,987.62
2022-09-10T03:46:19.422Z,987.68
2022-09-10T03:47:19.402Z,987.67
2022-09-10T03:48:19.682Z,987.65
2022-09-10T03:49:19.384Z,987.66
2022-09-10T03:50:19.371Z,987.64
2022-09-10T03:51:19.353Z,987.65
2022-09-10T03:52:19.392Z,987.65
2022-09-10T03:53:19.336Z,987.65
2022-09-10T03:54:19.353Z,987.65
2022-09-10T03:55:19.329Z,987.65
2022-09-10T03:56:19.420Z,987.65
2022-09-10T03:57:19.306Z,987.64
2022-09-10T03:58:19.297Z,987.63
2022-09-10T03:59:19.624Z,987.67
2022-09-10T04:00:19.263Z,987.69
2022-09-10T04:01:19.329Z,987.64
2022-09-10T04:02:19.276Z,987.66
2022-09-10T04:03:19.242Z,987.63
2022-09-10T04:04:19.226Z,987.68
2022-09-10T04:05:19.265Z,987.65
2022-09-10T04:06:19.203Z,987.64
2022-09-10T04:07:19.194Z,987.62
2022-09-10T04:08:19.195Z,987.60
2022-09-10T04:09:19.186Z,987.61
2022-09-10T04:10:19.166Z,987.56
2022-09-10T04:11:19.720Z,987.57
2022-09-10T04:12:19.167Z,987.58
2022-09-10T04:13:19.146Z,987.52
2022-09-10T04:14:19.136Z,987.47
2022-09-10T04:15:19.116Z,987.46
2022-09-10T04:16:19.139Z,987.43
2022-09-10T04:17:19.115Z,987.47
2022-09-10T04:18:19.097Z,987.47
2022-09-10T04:19:19.085Z,987.44
2022-09-10T04:20:19.084Z,987.46
2022-09-10T04:21:19.045Z,987.47
2022-09-10T04:22:19.155Z,987.47
2022-09-10T04:23:19.085Z,987.48
2022-09-10T04:24:19.066Z,987.45
2022-09-10T04:25:19.027Z,987.45
2022-09-10T04:26:19.067Z,987.46
2022-09-10T04:27:19.017Z,987.45
2022-09-10T04:28:18.987Z,987.41
2022-09-10T04:29:18.987Z,987.42
2022-09-10T04:30:18.978Z,987.41
2022-09-10T04:31:19.001Z,987.41
2022-09-10T04:32:18.956Z,987.45
2022-09-10T04:33:18.926Z,987.44
2022-09-10T04:34:18.927Z,987.44
2022-09-10T04:35:18.960Z,987.45
2022-09-10T04:36:18.907Z,987.49
2022-09-10T04:37:19.539Z,987.51
2022-09-10T04:38:18.887Z,987.51
2022-09-10T04:39:18.866Z,987.52
2022-09-10T04:40:18.868Z,987.51
2022-09-10T04:41:18.897Z,987.55
2022-09-10T04:42:18.849Z,987.54
2022-09-10T04:43:18.859Z,987.59
2022-09-10T04:44:18.858Z,987.58
2022-09-10T04:45:18.828Z,987.59
2022-09-10T04:46:18.818Z,987.59
2022-09-10T04:47:19.159Z,987.58
2022-09-10T04:48:18.727Z,987.55
2022-09-10T04:49:18.766Z,987.61
2022-09-10T04:50:18.757Z,987.61
2022-09-10T04:51:18.754Z,987.63
2022-09-10T04:52:18.697Z,987.63
2022-09-10T04:53:18.749Z,987.60
2022-09-10T04:54:18.747Z,987.62
2022-09-10T04:55:18.709Z,987.62
2022-09-10T04:56:18.760Z,987.67
2022-09-10T04:57:18.689Z,987.64
2022-09-10T04:58:18.657Z,987.67
2022-09-10T04:59:18.619Z,987.67
2022-09-10T05:00:18.619Z,987.69
2022-09-10T05:01:18.729Z,987.66
2022-09-10T05:02:18.706Z,987.66
2022-09-10T05:03:19.680Z,987.69
2022-09-10T05:04:18.628Z,987.66
2022-09-10T05:05:18.607Z,987.68
2022-09-10T05:06:18.626Z,987.71
2022-09-10T05:07:18.588Z,987.69
2022-09-10T05:08:18.548Z,987.68
2022-09-10T05:09:18.548Z,987.74
2022-09-10T05:10:18.518Z,987.69
2022-09-10T05:11:18.558Z,987.67
2022-09-10T05:12:18.550Z,987.69
2022-09-10T05:13:18.550Z,987.71
2022-09-10T05:14:18.539Z,987.72
2022-09-10T05:15:18.532Z,987.72
2022-09-10T05:16:18.554Z,987.68
2022-09-10T05:17:18.488Z,987.70
2022-09-10T05:18:18.439Z,987.75
2022-09-10T05:19:18.419Z,987.70
2022-09-10T05:20:18.472Z,987.71
2022-09-10T05:21:18.629Z,987.69
2022-09-10T05:22:18.401Z,987.71
2022-09-10T05:23:18.463Z,987.74
2022-09-10T05:24:18.431Z,987.71
2022-09-10T05:25:18.421Z,987.74
2022-09-10T05:26:18.381Z,987.73
2022-09-10T05:27:18.346Z,987.75
2022-09-10T05:28:18.719Z,987.76
2022-09-10T05:29:18.330Z,987.77
2022-09-10T05:30:18.309Z,987.77
2022-09-10T05:31:18.342Z,987.77
2022-09-10T05:32:18.298Z,987.80
2022-09-10T05:33:18.281Z,987.82
2022-09-10T05:34:18.579Z,987.83
2022-09-10T05:35:18.270Z,987.84
2022-09-10T05:36:18.253Z,987.80
2022-09-10T05:37:18.252Z,987.83
2022-09-10T05:38:18.292Z,987.84
2022-09-10T05:39:18.303Z,987.88
2022-09-10T05:40:18.292Z,987.88
2022-09-10T05:41:18.212Z,987.87
2022-09-10T05:42:18.201Z,987.93
2022-09-10T05:43:18.194Z,987.93
2022-09-10T05:44:18.182Z,987.91
2022-09-10T05:45:18.159Z,987.92
2022-09-10T05:46:18.188Z,987.90
2022-09-10T05:47:18.130Z,987.95
2022-09-10T05:48:18.181Z,987.94
2022-09-10T05:49:18.110Z,987.91
2022-09-10T05:50:19.100Z,987.93
2022-09-10T05:51:18.108Z,987.95
2022-09-10T05:52:18.124Z,987.95
2022-09-10T05:53:18.093Z,987.93
2022-09-10T05:54:18.073Z,987.98
2022-09-10T05:55:18.053Z,987.99
2022-09-10T05:56:22.854Z,987.97
2022-09-10T05:57:18.053Z,987.95
2022-09-10T05:58:18.083Z,987.95
2022-09-10T05:59:18.015Z,987.93
2022-09-10T06:00:18.028Z,987.96
2022-09-10T06:01:18.000Z,987.96
2022-09-10T06:02:21.805Z,987.99
2022-09-10T06:03:19.050Z,987.96
2022-09-10T06:04:18.191Z,987.97
2022-09-10T06:05:17.952Z,987.97
2022-09-10T06:06:17.962Z,987.97
2022-09-10T06:07:17.934Z,987.98
2022-09-10T06:08:18.014Z,987.94
2022-09-10T06:09:17.914Z,987.92
2022-09-10T06:10:17.923Z,987.93
2022-09-10T06:11:17.941Z,987.96
2022-09-10T06:12:17.885Z,987.98
2022-09-10T06:13:18.204Z,987.94
2022-09-10T06:14:17.878Z,987.99
2022-09-10T06:15:17.854Z,988.00
2022-09-10T06:16:17.871Z,987.96
2022-09-10T06:17:17.837Z,987.96
2022-09-10T06:18:17.823Z,987.89
2022-09-10T06:19:17.852Z,988.00
2022-09-10T06:20:17.816Z,987.93
2022-09-10T06:21:17.808Z,987.99
2022-09-10T06:22:17.785Z,987.98
2022-09-10T06:23:17.795Z,987.94
2022-09-10T06:24:18.213Z,987.93
2022-09-10T06:25:17.773Z,987.94
2022-09-10T06:26:17.792Z,987.93
2022-09-10T06:27:17.723Z,988.00
2022-09-10T06:28:17.734Z,988.00
2022-09-10T06:29:17.893Z,988.03
2022-09-10T06:30:17.748Z,987.98
2022-09-10T06:31:17.701Z,988.01
2022-09-10T06:32:17.715Z,987.98
2022-09-10T06:33:17.684Z,987.97
2022-09-10T06:34:17.666Z,987.99
2022-09-10T06:35:18.238Z,988.00
2022-09-10T06:36:17.655Z,987.98
2022-09-10T06:37:17.646Z,987.99
2022-09-10T06:38:17.626Z,988.01
2022-09-10T06:39:17.624Z,987.99
2022-09-10T06:40:17.604Z,988.02
2022-09-10T06:41:17.633Z,987.97
2022-09-10T06:42:17.593Z,987.99
2022-09-10T06:43:17.582Z,987.95
2022-09-10T06:44:17.564Z,987.93
2022-09-10T06:45:17.545Z,987.92
2022-09-10T06:47:02.921Z,987.92
2022-09-10T06:48:38.098Z,987.94
2022-09-10T06:49:19.177Z,987.90
2022-09-10T06:50:17.516Z,987.95
2022-09-10T06:51:17.718Z,987.89
2022-09-10T06:52:17.497Z,987.93
2022-09-10T06:53:17.468Z,987.95
2022-09-10T06:54:18.118Z,987.90
2022-09-10T06:55:18.276Z,987.94
2022-09-10T06:56:17.541Z,987.95
2022-09-10T06:57:17.458Z,987.98
2022-09-10T06:58:17.426Z,987.96
2022-09-10T06:59:17.408Z,987.97
2022-09-10T07:00:17.426Z,987.97
2022-09-10T07:01:17.471Z,988.02
2022-09-10T07:02:17.518Z,988.02
2022-09-10T07:03:17.648Z,988.03
2022-09-10T07:04:17.367Z,988.03
2022-09-10T07:05:17.368Z,988.07
2022-09-10T07:06:17.353Z,988.07
2022-09-10T07:07:17.410Z,988.06
2022-09-10T07:08:17.336Z,988.08
2022-09-10T07:09:17.322Z,988.07
2022-09-10T07:10:17.329Z,988.03
2022-09-10T07:11:17.298Z,988.08
2022-09-10T07:12:17.276Z,988.03
2022-09-10T07:13:17.717Z,988.07
2022-09-10T07:14:17.266Z,988.08
2022-09-10T07:15:17.277Z,988.04
2022-09-10T07:16:17.284Z,988.07
2022-09-10T07:17:17.257Z,988.08
2022-09-10T07:18:17.217Z,988.05
2022-09-10T07:19:17.209Z,988.10
2022-09-10T07:20:17.209Z,988.11
2022-09-10T07:21:17.199Z,988.13
2022-09-10T07:22:17.720Z,988.08
2022-09-10T07:23:17.199Z,988.10
2022-09-10T07:24:17.167Z,988.15
2022-09-10T07:25:17.147Z,988.12
2022-09-10T07:26:21.918Z,988.16
2022-09-10T07:27:17.131Z,988.10
2022-09-10T07:28:17.158Z,988.13
2022-09-10T07:29:17.121Z,988.17
2022-09-10T07:30:17.100Z,988.13
2022-09-10T07:31:17.168Z,988.14
2022-09-10T07:32:17.130Z,988.15
2022-09-10T07:33:18.780Z,988.17
2022-09-10T07:34:17.079Z,988.16
2022-09-10T07:35:17.059Z,988.17
2022-09-10T07:36:17.048Z,988.13
2022-09-10T07:37:17.068Z,988.18
2022-09-10T07:38:17.037Z,988.19
2022-09-10T07:39:17.028Z,988.22
2022-09-10T07:40:17.024Z,988.18
2022-09-10T07:41:16.998Z,988.20
2022-09-10T07:42:16.990Z,988.16
2022-09-10T07:43:16.978Z,988.20
2022-09-10T07:44:16.990Z,988.25
2022-09-10T07:45:16.950Z,988.22
2022-09-10T07:46:16.997Z,988.25
2022-09-10T07:47:16.940Z,988.26
2022-09-10T07:48:16.932Z,988.25
2022-09-10T07:49:16.911Z,988.21
2022-09-10T07:50:16.921Z,988.23
2022-09-10T07:51:16.921Z,988.24
2022-09-10T07:52:16.880Z,988.23
2022-09-10T07:53:16.890Z,988.24
2022-09-10T07:54:16.871Z,988.23
2022-09-10T07:55:16.850Z,988.26
2022-09-10T07:56:16.852Z,988.25
2022-09-10T07:57:16.849Z,988.22
2022-09-10T07:58:16.819Z,988.25
2022-09-10T07:59:16.811Z,988.26
2022-09-10T08:00:18.479Z,988.25
2022-09-10T08:01:16.859Z,988.30
2022-09-10T08:02:16.828Z,988.25
2022-09-10T08:03:16.771Z,988.22
2022-09-10T08:04:16.792Z,988.25
2022-09-10T08:05:16.752Z,988.25
2022-09-10T08:06:16.801Z,988.24
2022-09-10T08:08:13.535Z,988.22
2022-09-10T08:09:13.503Z,988.25
2022-09-10T08:10:13.504Z,988.24
2022-09-10T08:11:13.483Z,988.26
2022-09-10T08:12:13.522Z,988.27
2022-09-10T08:13:13.450Z,988.29
2022-09-10T08:14:13.502Z,988.33
2022-09-10T08:15:13.434Z,988.34
2022-09-10T08:16:13.441Z,988.29
2022-09-10T08:17:13.402Z,988.29
2022-09-10T08:18:13.442Z,988.29
2022-09-10T08:19:14.084Z,988.28
2022-09-10T08:20:13.425Z,988.31
2022-09-10T08:21:13.384Z,988.28
2022-09-10T08:22:13.819Z,988.28
2022-09-10T08:23:13.355Z,988.36
2022-09-10T08:24:15.055Z,988.33
2022-09-10T08:25:13.346Z,988.33
2022-09-10T08:26:13.383Z,988.41
2022-09-10T08:27:13.325Z,988.38
2022-09-10T08:28:13.313Z,988.35
2022-09-10T08:29:13.313Z,988.36
2022-09-10T08:30:13.384Z,988.40
2022-09-10T08:31:13.346Z,988.42
2022-09-10T08:32:13.314Z,988.47
2022-09-10T08:33:13.252Z,988.46
2022-09-10T08:34:13.244Z,988.42
2022-09-10T08:35:13.745Z,988.44
2022-09-10T08:36:13.236Z,988.47
2022-09-10T08:37:13.217Z,988.48
2022-09-10T08:38:13.207Z,988.46
2022-09-10T08:39:13.246Z,988.51
2022-09-10T08:40:13.278Z,988.53
2022-09-10T08:41:13.168Z,988.53
2022-09-10T08:42:13.156Z,988.51
2022-09-10T08:43:13.146Z,988.48
2022-09-10T08:44:13.144Z,988.52
2022-09-10T08:45:13.125Z,988.56
2022-09-10T08:46:13.140Z,988.55
2022-09-10T08:47:13.118Z,988.49
2022-09-10T08:48:13.087Z,988.52
2022-09-10T08:49:13.096Z,988.55
2022-09-10T08:50:13.074Z,988.55
2022-09-10T08:51:13.086Z,988.51
2022-09-10T08:52:13.060Z,988.58
2022-09-10T08:53:13.086Z,988.55
2022-09-10T08:54:16.727Z,988.56
2022-09-10T08:55:13.026Z,988.59
2022-09-10T08:56:13.027Z,988.53
2022-09-10T08:57:13.025Z,988.56
2022-09-10T08:58:12.985Z,988.56
2022-09-10T08:59:12.998Z,988.54
2022-09-10T09:00:12.998Z,988.55
2022-09-10T09:01:13.009Z,988.57
2022-09-10T09:02:22.459Z,988.54
2022-09-10T09:03:14.059Z,988.53
2022-09-10T09:04:12.938Z,988.55
2022-09-10T09:05:13.097Z,988.52
2022-09-10T09:06:12.927Z,988.51
2022-09-10T09:07:12.898Z,988.53
2022-09-10T09:08:12.887Z,988.56
2022-09-10T09:09:15.694Z,988.57
2022-09-10T09:10:13.262Z,988.60
2022-09-10T09:11:12.861Z,988.53
2022-09-10T09:12:12.847Z,988.58
2022-09-10T09:13:12.835Z,988.55
2022-09-10T09:14:12.820Z,988.56
2022-09-10T09:15:12.838Z,988.56
2022-09-10T09:16:12.875Z,988.58
2022-09-10T09:17:12.806Z,988.59
2022-09-10T09:18:12.788Z,988.53
2022-09-10T09:19:12.788Z,988.55
2022-09-10T09:20:12.769Z,988.57
2022-09-10T09:21:12.799Z,988.57
2022-09-10T09:22:12.780Z,988.56
2022-09-10T09:23:12.766Z,988.55
2022-09-10T09:24:13.965Z,988.56
2022-09-10T09:25:12.716Z,988.59
2022-09-10T09:26:12.786Z,988.60
2022-09-10T09:27:12.697Z,988.60
2022-09-10T09:28:12.697Z,988.62
2022-09-10T09:29:12.690Z,988.62
2022-09-10T09:30:12.695Z,988.59
2022-09-10T09:31:12.681Z,988.60
2022-09-10T09:32:12.650Z,988.59
2022-09-10T09:33:12.638Z,988.60
2022-09-10T09:34:12.629Z,988.63
2022-09-10T09:35:12.640Z,988.60
2022-09-10T09:36:12.610Z,988.59
2022-09-10T09:37:12.625Z,988.58
2022-09-10T09:38:12.589Z,988.57
2022-09-10T09:39:12.618Z,988.60
2022-09-10T09:40:12.705Z,988.59
2022-09-10T09:41:12.569Z,988.58
2022-09-10T09:42:12.539Z,988.56
2022-09-10T09:43:12.529Z,988.53
2022-09-10T09:44:12.519Z,988.56
2022-09-10T09:45:12.710Z,988.56
2022-09-10T09:46:12.515Z,988.49
2022-09-10T09:47:12.541Z,988.53
2022-09-10T09:48:12.480Z,988.55
2022-09-10T09:49:12.531Z,988.55
2022-09-10T09:50:14.201Z,988.52
2022-09-10T09:51:12.471Z,988.55
2022-09-10T09:52:12.448Z,988.54
2022-09-10T09:53:12.431Z,988.45
2022-09-10T09:54:46.520Z,988.49
2022-09-10T09:55:15.268Z,988.43
2022-09-10T09:56:12.430Z,988.39
2022-09-10T09:57:12.390Z,988.41
2022-09-10T09:58:12.406Z,988.41
2022-09-10T09:59:15.075Z,988.37
2022-09-10T10:00:12.361Z,988.34
2022-09-10T10:01:12.441Z,988.36
2022-09-10T10:02:12.424Z,988.35
2022-09-10T10:03:12.331Z,988.36
2022-09-10T10:04:12.321Z,988.34
2022-09-10T10:05:12.352Z,988.40
2022-09-10T10:06:12.299Z,988.32
2022-09-10T10:07:12.789Z,988.34
2022-09-10T10:08:12.300Z,988.29
2022-09-10T10:09:12.280Z,988.31
2022-09-10T10:10:12.289Z,988.27
2022-09-10T10:11:12.251Z,988.30
2022-09-10T10:12:12.252Z,988.31
2022-09-10T10:13:12.242Z,988.29
2022-09-10T10:14:13.182Z,988.31
2022-09-10T10:15:12.213Z,988.29
2022-09-10T10:16:12.230Z,988.30
2022-09-10T10:17:12.202Z,988.31
2022-09-10T10:18:12.291Z,988.29
2022-09-10T10:19:12.161Z,988.28
2022-09-10T10:20:12.150Z,988.25
2022-09-10T10:21:12.152Z,988.25
2022-09-10T10:22:12.130Z,988.26
2022-09-10T10:23:12.141Z,988.24
2022-09-10T10:24:12.148Z,988.26
2022-09-10T10:25:12.101Z,988.23
2022-09-10T10:26:23.072Z,988.21
2022-09-10T10:27:12.094Z,988.21
2022-09-10T10:28:12.074Z,988.25
2022-09-10T10:29:12.123Z,988.24
2022-09-10T10:30:12.054Z,988.25
2022-09-10T10:31:12.100Z,988.26
2022-09-10T10:32:12.983Z,988.18
2022-09-10T10:33:12.045Z,988.19
2022-09-10T10:34:12.013Z,988.15
2022-09-10T10:35:12.221Z,988.17
2022-09-10T10:36:11.991Z,988.11
2022-09-10T10:37:11.982Z,988.13
2022-09-10T10:38:11.982Z,988.12
2022-09-10T10:39:11.952Z,988.09
2022-09-10T10:40:12.042Z,988.12
2022-09-10T10:41:11.953Z,988.18
2022-09-10T10:42:11.922Z,988.18
2022-09-10T10:43:12.274Z,988.08
2022-09-10T10:44:11.914Z,988.12
2022-09-10T10:45:11.904Z,988.08
2022-09-10T10:46:12.157Z,988.12
2022-09-10T10:47:11.885Z,988.13
2022-09-10T10:48:11.904Z,988.12
2022-09-10T10:49:11.874Z,988.10
2022-09-10T10:50:12.307Z,988.20
2022-09-10T10:51:11.837Z,988.11
2022-09-10T10:52:11.823Z,988.13
2022-09-10T10:53:11.815Z,988.15
2022-09-10T10:54:11.802Z,988.15
2022-09-10T10:55:11.813Z,988.14
2022-09-10T10:56:11.852Z,988.12
2022-09-10T10:57:11.774Z,988.10
2022-09-10T10:58:11.775Z,988.13
2022-09-10T10:59:11.767Z,988.14
2022-09-10T11:00:12.316Z,988.09
2022-09-10T11:01:11.804Z,988.04
2022-09-10T11:02:11.782Z,988.04
2022-09-10T11:03:11.714Z,988.06
2022-09-10T11:04:11.704Z,988.05
2022-09-10T11:05:11.696Z,988.05
2022-09-10T11:06:11.725Z,988.10
2022-09-10T11:07:11.676Z,988.02
2022-09-10T11:08:11.686Z,988.07
2022-09-10T11:09:11.669Z,988.04
2022-09-10T11:10:11.663Z,988.04
2022-09-10T11:11:11.659Z,988.07
2022-09-10T11:12:11.637Z,988.01
2022-09-10T11:13:11.646Z,987.99
2022-09-10T11:14:11.606Z,988.04
2022-09-10T11:15:11.595Z,988.05
2022-09-10T11:16:11.606Z,988.03
2022-09-10T11:17:11.735Z,988.11
2022-09-10T11:18:11.593Z,988.15
2022-09-10T11:19:11.554Z,988.20
2022-09-10T11:20:27.961Z,988.21
2022-09-10T11:21:12.555Z,988.17
2022-09-10T11:22:11.538Z,988.16
2022-09-10T11:23:11.507Z,988.22
2022-09-10T11:24:16.342Z,988.16
2022-09-10T11:25:12.505Z,988.14
2022-09-10T11:26:11.508Z,988.15
2022-09-10T11:27:11.506Z,988.14
2022-09-10T11:28:11.469Z,988.07
2022-09-10T11:29:11.468Z,988.14
2022-09-10T11:30:11.451Z,988.12
2022-09-10T11:31:11.492Z,988.10
2022-09-10T11:32:11.796Z,988.09
2022-09-10T11:33:11.406Z,988.11
2022-09-10T11:34:12.426Z,988.06
2022-09-10T11:35:11.386Z,988.10
2022-09-10T11:36:11.376Z,988.10
2022-09-10T11:37:11.377Z,988.13
2022-09-10T11:38:11.357Z,988.13
2022-09-10T11:39:11.358Z,988.12
2022-09-10T11:40:11.384Z,988.13
2022-09-10T11:41:11.338Z,988.08
2022-09-10T11:42:11.342Z,988.10
2022-09-10T11:43:11.779Z,988.06
2022-09-10T11:44:11.341Z,988.03
2022-09-10T11:45:11.309Z,988.08
2022-09-10T11:46:11.307Z,988.02
2022-09-10T11:47:11.303Z,988.07
2022-09-10T11:48:11.248Z,988.06
2022-09-10T11:49:11.248Z,988.03
2022-09-10T11:50:11.238Z,988.02
2022-09-10T11:51:11.827Z,988.05
2022-09-10T11:52:11.237Z,988.01
2022-09-10T11:53:11.199Z,988.06
2022-09-10T11:54:11.198Z,988.07
2022-09-10T11:55:11.203Z,988.04
2022-09-10T11:56:11.270Z,988.06
2022-09-10T11:57:11.181Z,988.11
2022-09-10T11:58:11.171Z,988.07
2022-09-10T11:59:11.140Z,988.05
2022-09-10T12:00:11.183Z,988.09
2022-09-10T12:01:11.130Z,988.09
2022-09-10T12:02:11.205Z,988.08
2022-09-10T12:03:11.153Z,988.08
2022-09-10T12:04:11.090Z,988.04
2022-09-10T12:05:11.088Z,988.09
2022-09-10T12:06:11.078Z,988.05
2022-09-10T12:07:11.070Z,988.05
2022-09-10T12:08:11.058Z,988.08
2022-09-10T12:09:11.050Z,988.06
2022-09-10T12:10:14.143Z,988.00
2022-09-10T12:11:11.019Z,987.99
2022-09-10T12:12:11.050Z,988.00
2022-09-10T12:13:11.029Z,987.99
2022-09-10T12:14:10.989Z,987.93
2022-09-10T12:15:10.968Z,987.92
2022-09-10T12:16:11.006Z,987.91
2022-09-10T12:17:10.949Z,987.93
2022-09-10T12:18:10.949Z,987.95
2022-09-10T12:19:10.941Z,987.94
2022-09-10T12:20:10.951Z,987.96
2022-09-10T12:21:10.921Z,987.91
2022-09-10T12:22:10.921Z,987.90
2022-09-10T12:23:10.900Z,987.88
2022-09-10T12:24:10.891Z,987.85
2022-09-10T12:25:10.891Z,987.89
2022-09-10T12:26:10.921Z,987.90
2022-09-10T12:27:10.850Z,987.90
2022-09-10T12:28:10.872Z,987.88
2022-09-10T12:29:10.830Z,987.94
2022-09-10T12:30:10.822Z,987.90
2022-09-10T12:31:10.844Z,987.91